sensor_id;sensor_type;location;lat;lon;timestamp;temperature;humidity
19152;DHT22;9708;53.114;9.388;2022-12-18T00:00:58;-7.30;99.90
19152;DHT22;9708;53.114;9.388;2022-12-18T00:03:25;-7.20;99.90
19152;DHT22;9708;53.114;9.388;2022-12-18T00:05:52;-7.30;99.90
19152;DHT22;9708;53.114;9.388;2022-12-18T00:08:19;-7.30;99.90
19152;DHT22;9708;53.114;9.388;2022-12-18T00:10:46;-7.00;99.90
19152;DHT22;9708;53.114;9.388;2022-12-18T00:13:13;-7.10;99.90
19152;DHT22;9708;53.114;9.388;2022-12-18T00:15:46;-7.10;99.90
19152;DHT22;9708;53.114;9.388;2022-12-18T00:18:13;-7.20;99.90
19152;DHT22;9708;53.114;9.388;2022-12-18T00:20:40;-7.30;99.90
19152;DHT22;9708;53.114;9.388;2022-12-18T00:23:16;-7.40;99.90
19152;DHT22;9708;53.114;9.388;2022-12-18T00:25:44;-7.40;99.90
19152;DHT22;9708;53.114;9.388;2022-12-18T00:28:11;-7.40;99.90
19152;DHT22;9708;53.114;9.388;2022-12-18T00:30:38;-7.50;99.90
19152;DHT22;9708;53.114;9.388;2022-12-18T00:33:08;-7.50;99.90
19152;DHT22;9708;53.114;9.388;2022-12-18T00:35:39;-7.50;99.90
19152;DHT22;9708;53.114;9.388;2022-12-18T00:38:06;-7.50;99.90
19152;DHT22;9708;53.114;9.388;2022-12-18T00:40:33;-7.20;99.90
19152;DHT22;9708;53.114;9.388;2022-12-18T00:42:59;-7.10;99.90
19152;DHT22;9708;53.114;9.388;2022-12-18T00:45:26;-7.00;99.90
19152;DHT22;9708;53.114;9.388;2022-12-18T00:47:54;-7.10;99.90
19152;DHT22;9708;53.114;9.388;2022-12-18T00:50:24;-7.20;99.90
19152;DHT22;9708;53.114;9.388;2022-12-18T00:52:51;-7.30;99.90
19152;DHT22;9708;53.114;9.388;2022-12-18T00:55:18;-7.30;99.90
19152;DHT22;9708;53.114;9.388;2022-12-18T00:57:45;-7.30;99.90
19152;DHT22;9708;53.114;9.388;2022-12-18T01:00:14;-7.40;99.90
19152;DHT22;9708;53.114;9.388;2022-12-18T01:02:41;-7.50;99.90
19152;DHT22;9708;53.114;9.388;2022-12-18T01:05:09;-7.40;99.90
19152;DHT22;9708;53.114;9.388;2022-12-18T01:07:37;-7.40;99.90
19152;DHT22;9708;53.114;9.388;2022-12-18T01:10:06;-7.40;99.90
19152;DHT22;9708;53.114;9.388;2022-12-18T01:12:33;-7.50;99.90
19152;DHT22;9708;53.114;9.388;2022-12-18T01:15:00;-7.70;99.90
19152;DHT22;9708;53.114;9.388;2022-12-18T01:17:27;-7.70;99.90
19152;DHT22;9708;53.114;9.388;2022-12-18T01:19:53;-7.80;99.90
19152;DHT22;9708;53.114;9.388;2022-12-18T01:22:20;-7.90;99.90
19152;DHT22;9708;53.114;9.388;2022-12-18T01:24:48;-7.90;99.90
19152;DHT22;9708;53.114;9.388;2022-12-18T01:27:15;-7.80;99.90
19152;DHT22;9708;53.114;9.388;2022-12-18T01:29:42;-7.80;99.90
19152;DHT22;9708;53.114;9.388;2022-12-18T01:32:09;-7.80;99.90
19152;DHT22;9708;53.114;9.388;2022-12-18T01:34:36;-7.80;99.90
19152;DHT22;9708;53.114;9.388;2022-12-18T01:37:03;-7.90;99.90
19152;DHT22;9708;53.114;9.388;2022-12-18T01:39:30;-7.80;99.90
19152;DHT22;9708;53.114;9.388;2022-12-18T01:41:59;-7.70;99.90
19152;DHT22;9708;53.114;9.388;2022-12-18T01:45:03;-7.70;99.90
19152;DHT22;9708;53.114;9.388;2022-12-18T01:47:35;-7.70;99.90
19152;DHT22;9708;53.114;9.388;2022-12-18T01:50:06;-7.60;99.90
19152;DHT22;9708;53.114;9.388;2022-12-18T01:52:33;-7.60;99.90
19152;DHT22;9708;53.114;9.388;2022-12-18T01:55:02;-7.70;99.90
19152;DHT22;9708;53.114;9.388;2022-12-18T01:57:31;-7.60;99.90
19152;DHT22;9708;53.114;9.388;2022-12-18T02:00:01;-7.70;99.90
19152;DHT22;9708;53.114;9.388;2022-12-18T02:02:29;-7.60;99.90
19152;DHT22;9708;53.114;9.388;2022-12-18T02:04:56;-7.60;99.90
19152;DHT22;9708;53.114;9.388;2022-12-18T02:07:29;-7.60;99.90
19152;DHT22;9708;53.114;9.388;2022-12-18T02:10:02;-7.60;99.90
19152;DHT22;9708;53.114;9.388;2022-12-18T02:12:37;-7.60;99.90
19152;DHT22;9708;53.114;9.388;2022-12-18T02:15:13;-7.50;99.90
19152;DHT22;9708;53.114;9.388;2022-12-18T02:17:47;-7.50;99.90
19152;DHT22;9708;53.114;9.388;2022-12-18T02:20:19;-7.50;99.90
19152;DHT22;9708;53.114;9.388;2022-12-18T02:22:57;-7.60;99.90
19152;DHT22;9708;53.114;9.388;2022-12-18T02:28:20;-7.60;99.90
19152;DHT22;9708;53.114;9.388;2022-12-18T02:30:49;-7.70;99.90
19152;DHT22;9708;53.114;9.388;2022-12-18T02:33:19;-7.80;99.90
19152;DHT22;9708;53.114;9.388;2022-12-18T02:35:48;-7.80;99.90
19152;DHT22;9708;53.114;9.388;2022-12-18T02:38:16;-7.80;99.90
19152;DHT22;9708;53.114;9.388;2022-12-18T02:40:44;-7.80;99.90
19152;DHT22;9708;53.114;9.388;2022-12-18T02:43:13;-7.80;99.90
19152;DHT22;9708;53.114;9.388;2022-12-18T02:45:49;-7.80;99.90
19152;DHT22;9708;53.114;9.388;2022-12-18T02:48:41;-8.00;99.90
19152;DHT22;9708;53.114;9.388;2022-12-18T02:51:12;-8.00;99.90
19152;DHT22;9708;53.114;9.388;2022-12-18T02:53:45;-8.10;99.90
19152;DHT22;9708;53.114;9.388;2022-12-18T02:56:18;-8.10;99.90
19152;DHT22;9708;53.114;9.388;2022-12-18T02:58:51;-8.10;99.90
19152;DHT22;9708;53.114;9.388;2022-12-18T03:01:30;-8.10;99.90
19152;DHT22;9708;53.114;9.388;2022-12-18T03:04:02;-8.10;99.90
19152;DHT22;9708;53.114;9.388;2022-12-18T03:06:33;-8.20;99.90
19152;DHT22;9708;53.114;9.388;2022-12-18T03:09:07;-8.20;99.90
19152;DHT22;9708;53.114;9.388;2022-12-18T03:11:37;-8.30;99.90
19152;DHT22;9708;53.114;9.388;2022-12-18T03:14:23;-8.30;99.90
19152;DHT22;9708;53.114;9.388;2022-12-18T03:16:55;-8.40;99.90
19152;DHT22;9708;53.114;9.388;2022-12-18T03:19:27;-8.40;99.90
19152;DHT22;9708;53.114;9.388;2022-12-18T03:21:56;-8.30;99.90
19152;DHT22;9708;53.114;9.388;2022-12-18T03:24:25;-8.30;99.90
19152;DHT22;9708;53.114;9.388;2022-12-18T03:27:00;-8.40;99.90
19152;DHT22;9708;53.114;9.388;2022-12-18T03:29:31;-8.40;99.90
19152;DHT22;9708;53.114;9.388;2022-12-18T03:32:04;-8.40;99.90
19152;DHT22;9708;53.114;9.388;2022-12-18T03:34:34;-8.50;99.90
19152;DHT22;9708;53.114;9.388;2022-12-18T03:37:03;-8.60;99.90
19152;DHT22;9708;53.114;9.388;2022-12-18T03:39:30;-8.50;99.90
19152;DHT22;9708;53.114;9.388;2022-12-18T03:42:03;-8.50;99.90
19152;DHT22;9708;53.114;9.388;2022-12-18T03:44:36;-8.50;99.90
19152;DHT22;9708;53.114;9.388;2022-12-18T03:47:11;-8.50;99.90
19152;DHT22;9708;53.114;9.388;2022-12-18T03:49:46;-8.50;99.90
19152;DHT22;9708;53.114;9.388;2022-12-18T03:52:18;-8.50;99.90
19152;DHT22;9708;53.114;9.388;2022-12-18T03:54:47;-8.50;99.90
19152;DHT22;9708;53.114;9.388;2022-12-18T03:57:16;-8.50;99.90
19152;DHT22;9708;53.114;9.388;2022-12-18T03:59:46;-8.50;99.90
19152;DHT22;9708;53.114;9.388;2022-12-18T04:02:16;-8.50;99.90
19152;DHT22;9708;53.114;9.388;2022-12-18T04:04:45;-8.60;99.90
19152;DHT22;9708;53.114;9.388;2022-12-18T04:07:13;-8.70;99.90
19152;DHT22;9708;53.114;9.388;2022-12-18T04:09:41;-8.80;99.90
19152;DHT22;9708;53.114;9.388;2022-12-18T04:12:10;-8.70;99.90
19152;DHT22;9708;53.114;9.388;2022-12-18T04:14:37;-8.70;99.90
19152;DHT22;9708;53.114;9.388;2022-12-18T04:17:04;-8.70;99.90
19152;DHT22;9708;53.114;9.388;2022-12-18T04:19:32;-8.90;99.90
19152;DHT22;9708;53.114;9.388;2022-12-18T04:21:59;-8.80;99.90
19152;DHT22;9708;53.114;9.388;2022-12-18T04:24:26;-8.80;99.90
19152;DHT22;9708;53.114;9.388;2022-12-18T04:26:52;-8.90;99.90
19152;DHT22;9708;53.114;9.388;2022-12-18T04:29:19;-8.80;99.90
19152;DHT22;9708;53.114;9.388;2022-12-18T04:31:46;-8.80;99.90
19152;DHT22;9708;53.114;9.388;2022-12-18T04:34:13;-8.80;99.90
19152;DHT22;9708;53.114;9.388;2022-12-18T04:36:41;-8.80;99.90
19152;DHT22;9708;53.114;9.388;2022-12-18T04:39:08;-8.90;99.90
19152;DHT22;9708;53.114;9.388;2022-12-18T04:41:35;-8.90;99.90
19152;DHT22;9708;53.114;9.388;2022-12-18T04:44:02;-8.80;99.90
19152;DHT22;9708;53.114;9.388;2022-12-18T04:46:30;-8.90;99.90
19152;DHT22;9708;53.114;9.388;2022-12-18T04:48:57;-9.00;99.90
19152;DHT22;9708;53.114;9.388;2022-12-18T04:51:24;-8.90;99.90
19152;DHT22;9708;53.114;9.388;2022-12-18T04:53:52;-8.90;99.90
19152;DHT22;9708;53.114;9.388;2022-12-18T04:56:19;-8.90;99.90
19152;DHT22;9708;53.114;9.388;2022-12-18T04:58:46;-8.90;99.90
19152;DHT22;9708;53.114;9.388;2022-12-18T05:01:14;-8.90;99.90
19152;DHT22;9708;53.114;9.388;2022-12-18T05:03:42;-8.90;99.90
19152;DHT22;9708;53.114;9.388;2022-12-18T05:06:09;-8.90;99.90
19152;DHT22;9708;53.114;9.388;2022-12-18T05:08:36;-8.90;99.90
19152;DHT22;9708;53.114;9.388;2022-12-18T05:11:06;-8.90;99.90
19152;DHT22;9708;53.114;9.388;2022-12-18T05:13:34;-9.00;99.90
19152;DHT22;9708;53.114;9.388;2022-12-18T05:16:01;-9.00;99.90
19152;DHT22;9708;53.114;9.388;2022-12-18T05:18:28;-8.90;99.90
19152;DHT22;9708;53.114;9.388;2022-12-18T05:20:55;-8.90;99.90
19152;DHT22;9708;53.114;9.388;2022-12-18T05:23:22;-9.00;99.90
19152;DHT22;9708;53.114;9.388;2022-12-18T05:25:51;-8.90;99.90
19152;DHT22;9708;53.114;9.388;2022-12-18T05:28:21;-9.00;99.90
19152;DHT22;9708;53.114;9.388;2022-12-18T05:30:49;-9.00;99.90
19152;DHT22;9708;53.114;9.388;2022-12-18T05:33:16;-9.00;99.90
19152;DHT22;9708;53.114;9.388;2022-12-18T05:35:43;-9.00;99.90
19152;DHT22;9708;53.114;9.388;2022-12-18T05:38:10;-8.90;99.90
19152;DHT22;9708;53.114;9.388;2022-12-18T05:40:37;-8.90;99.90
19152;DHT22;9708;53.114;9.388;2022-12-18T05:43:03;-8.90;99.90
19152;DHT22;9708;53.114;9.388;2022-12-18T05:45:32;-8.80;99.90
19152;DHT22;9708;53.114;9.388;2022-12-18T05:47:59;-8.90;99.90
19152;DHT22;9708;53.114;9.388;2022-12-18T05:50:25;-8.80;99.90
19152;DHT22;9708;53.114;9.388;2022-12-18T05:52:52;-8.80;99.90
19152;DHT22;9708;53.114;9.388;2022-12-18T05:55:19;-8.80;99.90
19152;DHT22;9708;53.114;9.388;2022-12-18T05:57:46;-8.80;99.90
19152;DHT22;9708;53.114;9.388;2022-12-18T06:00:14;-8.90;99.90
19152;DHT22;9708;53.114;9.388;2022-12-18T06:02:45;-9.10;99.90
19152;DHT22;9708;53.114;9.388;2022-12-18T06:05:12;-9.10;99.90
19152;DHT22;9708;53.114;9.388;2022-12-18T06:07:39;-9.00;99.90
19152;DHT22;9708;53.114;9.388;2022-12-18T06:10:06;-9.00;99.90
19152;DHT22;9708;53.114;9.388;2022-12-18T06:12:33;-9.00;99.90
19152;DHT22;9708;53.114;9.388;2022-12-18T06:15:02;-8.90;99.90
19152;DHT22;9708;53.114;9.388;2022-12-18T06:17:29;-8.90;99.90
19152;DHT22;9708;53.114;9.388;2022-12-18T06:19:58;-9.00;99.90
19152;DHT22;9708;53.114;9.388;2022-12-18T06:22:25;-9.00;99.90
19152;DHT22;9708;53.114;9.388;2022-12-18T06:24:52;-8.90;99.90
19152;DHT22;9708;53.114;9.388;2022-12-18T06:27:19;-9.00;99.90
19152;DHT22;9708;53.114;9.388;2022-12-18T06:29:46;-9.00;99.90
19152;DHT22;9708;53.114;9.388;2022-12-18T06:32:13;-9.10;99.90
19152;DHT22;9708;53.114;9.388;2022-12-18T06:34:40;-9.00;99.90
19152;DHT22;9708;53.114;9.388;2022-12-18T06:37:08;-9.00;99.90
19152;DHT22;9708;53.114;9.388;2022-12-18T06:39:35;-9.00;99.90
19152;DHT22;9708;53.114;9.388;2022-12-18T06:42:03;-9.00;99.90
19152;DHT22;9708;53.114;9.388;2022-12-18T06:44:29;-9.10;99.90
19152;DHT22;9708;53.114;9.388;2022-12-18T06:46:56;-9.10;99.90
19152;DHT22;9708;53.114;9.388;2022-12-18T06:49:23;-9.20;99.90
19152;DHT22;9708;53.114;9.388;2022-12-18T06:51:50;-9.10;99.90
19152;DHT22;9708;53.114;9.388;2022-12-18T06:54:18;-9.10;99.90
19152;DHT22;9708;53.114;9.388;2022-12-18T06:56:45;-9.00;99.90
19152;DHT22;9708;53.114;9.388;2022-12-18T06:59:13;-8.70;99.90
19152;DHT22;9708;53.114;9.388;2022-12-18T07:01:40;-8.60;99.90
19152;DHT22;9708;53.114;9.388;2022-12-18T07:04:07;-8.50;99.90
19152;DHT22;9708;53.114;9.388;2022-12-18T07:06:33;-8.20;99.90
19152;DHT22;9708;53.114;9.388;2022-12-18T07:09:03;-8.40;99.90
19152;DHT22;9708;53.114;9.388;2022-12-18T07:11:33;-8.50;99.90
19152;DHT22;9708;53.114;9.388;2022-12-18T07:14:00;-8.30;99.90
19152;DHT22;9708;53.114;9.388;2022-12-18T07:16:27;-8.40;99.90
19152;DHT22;9708;53.114;9.388;2022-12-18T07:18:55;-8.60;99.90
19152;DHT22;9708;53.114;9.388;2022-12-18T07:21:23;-8.40;99.90
19152;DHT22;9708;53.114;9.388;2022-12-18T07:23:50;-8.30;99.90
19152;DHT22;9708;53.114;9.388;2022-12-18T07:26:19;-8.40;99.90
19152;DHT22;9708;53.114;9.388;2022-12-18T07:28:47;-8.40;99.90
19152;DHT22;9708;53.114;9.388;2022-12-18T07:31:15;-8.50;99.90
19152;DHT22;9708;53.114;9.388;2022-12-18T07:33:45;-8.50;99.90
19152;DHT22;9708;53.114;9.388;2022-12-18T07:36:13;-8.50;99.90
19152;DHT22;9708;53.114;9.388;2022-12-18T07:38:40;-8.50;99.90
19152;DHT22;9708;53.114;9.388;2022-12-18T07:41:09;-8.40;99.90
19152;DHT22;9708;53.114;9.388;2022-12-18T07:43:36;-8.50;99.90
19152;DHT22;9708;53.114;9.388;2022-12-18T07:46:05;-8.50;99.90
19152;DHT22;9708;53.114;9.388;2022-12-18T07:48:33;-8.50;99.90
19152;DHT22;9708;53.114;9.388;2022-12-18T07:51:00;-8.50;99.90
19152;DHT22;9708;53.114;9.388;2022-12-18T07:53:27;-8.40;99.90
19152;DHT22;9708;53.114;9.388;2022-12-18T07:55:55;-8.30;99.90
19152;DHT22;9708;53.114;9.388;2022-12-18T07:58:22;-8.20;99.90
19152;DHT22;9708;53.114;9.388;2022-12-18T08:00:49;-8.20;99.90
19152;DHT22;9708;53.114;9.388;2022-12-18T08:03:17;-8.10;99.90
19152;DHT22;9708;53.114;9.388;2022-12-18T08:05:45;-8.00;99.90
19152;DHT22;9708;53.114;9.388;2022-12-18T08:08:11;-7.50;99.90
19152;DHT22;9708;53.114;9.388;2022-12-18T08:10:38;-7.00;99.90
19152;DHT22;9708;53.114;9.388;2022-12-18T08:13:05;-6.90;99.90
19152;DHT22;9708;53.114;9.388;2022-12-18T08:15:32;-6.80;99.90
19152;DHT22;9708;53.114;9.388;2022-12-18T08:17:59;-6.60;99.90
19152;DHT22;9708;53.114;9.388;2022-12-18T08:20:27;-6.30;99.90
19152;DHT22;9708;53.114;9.388;2022-12-18T08:22:54;-6.30;99.90
19152;DHT22;9708;53.114;9.388;2022-12-18T08:25:21;-6.20;99.90
19152;DHT22;9708;53.114;9.388;2022-12-18T08:27:47;-6.10;99.90
19152;DHT22;9708;53.114;9.388;2022-12-18T08:30:14;-5.80;99.90
19152;DHT22;9708;53.114;9.388;2022-12-18T08:32:41;-5.70;99.90
19152;DHT22;9708;53.114;9.388;2022-12-18T08:35:09;-5.60;99.90
19152;DHT22;9708;53.114;9.388;2022-12-18T08:37:38;-5.70;99.90
19152;DHT22;9708;53.114;9.388;2022-12-18T08:40:06;-5.60;99.90
19152;DHT22;9708;53.114;9.388;2022-12-18T08:42:33;-5.50;99.90
19152;DHT22;9708;53.114;9.388;2022-12-18T08:45:17;-5.30;99.90
19152;DHT22;9708;53.114;9.388;2022-12-18T08:47:44;-5.20;99.90
19152;DHT22;9708;53.114;9.388;2022-12-18T08:50:11;-5.10;99.90
19152;DHT22;9708;53.114;9.388;2022-12-18T08:52:40;-5.10;99.90
19152;DHT22;9708;53.114;9.388;2022-12-18T08:55:08;-5.10;99.90
19152;DHT22;9708;53.114;9.388;2022-12-18T08:57:35;-4.90;99.90
19152;DHT22;9708;53.114;9.388;2022-12-18T09:00:03;-4.90;99.90
19152;DHT22;9708;53.114;9.388;2022-12-18T09:02:30;-4.70;99.90
19152;DHT22;9708;53.114;9.388;2022-12-18T09:04:57;-4.60;99.90
19152;DHT22;9708;53.114;9.388;2022-12-18T09:07:24;-4.50;99.90
19152;DHT22;9708;53.114;9.388;2022-12-18T09:09:52;-4.50;99.90
19152;DHT22;9708;53.114;9.388;2022-12-18T09:12:19;-4.40;99.90
19152;DHT22;9708;53.114;9.388;2022-12-18T09:14:47;-4.20;99.90
19152;DHT22;9708;53.114;9.388;2022-12-18T09:17:14;-4.00;99.90
19152;DHT22;9708;53.114;9.388;2022-12-18T09:19:40;-4.00;99.90
19152;DHT22;9708;53.114;9.388;2022-12-18T09:22:07;-3.80;99.90
19152;DHT22;9708;53.114;9.388;2022-12-18T09:24:35;-3.70;99.90
19152;DHT22;9708;53.114;9.388;2022-12-18T09:27:03;-3.40;99.90
19152;DHT22;9708;53.114;9.388;2022-12-18T09:29:30;-2.90;99.90
19152;DHT22;9708;53.114;9.388;2022-12-18T09:31:56;-2.40;99.90
19152;DHT22;9708;53.114;9.388;2022-12-18T09:34:23;-2.00;99.90
19152;DHT22;9708;53.114;9.388;2022-12-18T09:36:50;-1.40;99.90
19152;DHT22;9708;53.114;9.388;2022-12-18T09:39:17;-0.80;99.90
19152;DHT22;9708;53.114;9.388;2022-12-18T09:41:46;-0.70;99.90
19152;DHT22;9708;53.114;9.388;2022-12-18T09:44:36;-0.20;99.90
19152;DHT22;9708;53.114;9.388;2022-12-18T09:47:09;-0.40;99.90
19152;DHT22;9708;53.114;9.388;2022-12-18T09:49:40;-0.10;99.90
19152;DHT22;9708;53.114;9.388;2022-12-18T09:52:16;-0.30;99.90
19152;DHT22;9708;53.114;9.388;2022-12-18T09:54:51;0.30;99.90
19152;DHT22;9708;53.114;9.388;2022-12-18T09:57:21;0.00;99.90
19152;DHT22;9708;53.114;9.388;2022-12-18T09:59:54;-0.40;99.90
19152;DHT22;9708;53.114;9.388;2022-12-18T10:02:24;-0.90;99.90
19152;DHT22;9708;53.114;9.388;2022-12-18T10:05:03;-1.20;99.90
19152;DHT22;9708;53.114;9.388;2022-12-18T10:07:40;-1.10;99.90
19152;DHT22;9708;53.114;9.388;2022-12-18T10:10:19;-1.30;99.90
19152;DHT22;9708;53.114;9.388;2022-12-18T10:12:54;-1.10;99.90
19152;DHT22;9708;53.114;9.388;2022-12-18T10:15:28;-0.80;99.90
19152;DHT22;9708;53.114;9.388;2022-12-18T10:18:01;-0.90;99.90
19152;DHT22;9708;53.114;9.388;2022-12-18T10:20:38;-0.50;99.90
19152;DHT22;9708;53.114;9.388;2022-12-18T10:23:12;-0.40;99.90
19152;DHT22;9708;53.114;9.388;2022-12-18T10:25:47;0.10;99.90
19152;DHT22;9708;53.114;9.388;2022-12-18T10:28:17;0.30;99.90
19152;DHT22;9708;53.114;9.388;2022-12-18T10:30:46;0.50;99.90
19152;DHT22;9708;53.114;9.388;2022-12-18T10:33:16;0.30;99.90
19152;DHT22;9708;53.114;9.388;2022-12-18T10:35:44;-0.10;99.90
19152;DHT22;9708;53.114;9.388;2022-12-18T10:38:22;-0.40;99.90
19152;DHT22;9708;53.114;9.388;2022-12-18T10:40:51;-0.50;99.90
19152;DHT22;9708;53.114;9.388;2022-12-18T10:43:21;-0.60;99.90
19152;DHT22;9708;53.114;9.388;2022-12-18T10:46:02;-0.40;99.90
19152;DHT22;9708;53.114;9.388;2022-12-18T10:48:31;-0.40;99.90
19152;DHT22;9708;53.114;9.388;2022-12-18T10:50:58;-0.60;99.90
19152;DHT22;9708;53.114;9.388;2022-12-18T10:53:28;-0.30;99.90
19152;DHT22;9708;53.114;9.388;2022-12-18T10:56:02;-0.10;99.90
19152;DHT22;9708;53.114;9.388;2022-12-18T10:58:31;-0.20;99.90
19152;DHT22;9708;53.114;9.388;2022-12-18T11:01:08;-0.50;99.90
19152;DHT22;9708;53.114;9.388;2022-12-18T11:03:38;-0.60;99.90
19152;DHT22;9708;53.114;9.388;2022-12-18T11:06:07;-0.60;99.90
19152;DHT22;9708;53.114;9.388;2022-12-18T11:08:35;-0.50;99.90
19152;DHT22;9708;53.114;9.388;2022-12-18T11:11:02;-0.20;99.90
19152;DHT22;9708;53.114;9.388;2022-12-18T11:13:30;-0.20;99.90
19152;DHT22;9708;53.114;9.388;2022-12-18T11:15:58;-0.20;99.90
19152;DHT22;9708;53.114;9.388;2022-12-18T11:18:28;0.00;99.90
19152;DHT22;9708;53.114;9.388;2022-12-18T11:20:56;0.00;99.90
19152;DHT22;9708;53.114;9.388;2022-12-18T11:23:24;0.00;99.90
19152;DHT22;9708;53.114;9.388;2022-12-18T11:25:54;0.00;99.90
19152;DHT22;9708;53.114;9.388;2022-12-18T11:28:43;0.00;99.90
19152;DHT22;9708;53.114;9.388;2022-12-18T11:31:22;-0.10;99.90
19152;DHT22;9708;53.114;9.388;2022-12-18T11:34:01;0.00;99.90
19152;DHT22;9708;53.114;9.388;2022-12-18T11:36:32;0.60;99.90
19152;DHT22;9708;53.114;9.388;2022-12-18T11:39:03;0.70;99.90
19152;DHT22;9708;53.114;9.388;2022-12-18T11:41:36;0.60;99.90
19152;DHT22;9708;53.114;9.388;2022-12-18T11:44:25;0.90;99.90
19152;DHT22;9708;53.114;9.388;2022-12-18T11:46:56;0.80;99.90
19152;DHT22;9708;53.114;9.388;2022-12-18T11:49:30;0.80;99.90
19152;DHT22;9708;53.114;9.388;2022-12-18T11:52:03;0.80;99.90
19152;DHT22;9708;53.114;9.388;2022-12-18T11:54:31;0.80;99.90
19152;DHT22;9708;53.114;9.388;2022-12-18T11:57:03;0.90;99.90
19152;DHT22;9708;53.114;9.388;2022-12-18T11:59:37;1.00;99.90
19152;DHT22;9708;53.114;9.388;2022-12-18T12:02:21;0.90;99.90
19152;DHT22;9708;53.114;9.388;2022-12-18T12:05:04;1.10;99.90
19152;DHT22;9708;53.114;9.388;2022-12-18T12:07:42;1.60;99.90
19152;DHT22;9708;53.114;9.388;2022-12-18T12:10:23;2.80;99.90
19152;DHT22;9708;53.114;9.388;2022-12-18T12:13:06;3.60;99.90
19152;DHT22;9708;53.114;9.388;2022-12-18T12:15:42;3.00;99.90
19152;DHT22;9708;53.114;9.388;2022-12-18T12:18:20;3.40;99.90
19152;DHT22;9708;53.114;9.388;2022-12-18T12:21:00;3.60;99.90
19152;DHT22;9708;53.114;9.388;2022-12-18T12:23:35;2.70;99.90
19152;DHT22;9708;53.114;9.388;2022-12-18T12:26:06;2.00;99.90
19152;DHT22;9708;53.114;9.388;2022-12-18T12:28:55;1.60;99.90
19152;DHT22;9708;53.114;9.388;2022-12-18T12:31:35;1.80;99.90
19152;DHT22;9708;53.114;9.388;2022-12-18T12:34:09;1.30;99.90
19152;DHT22;9708;53.114;9.388;2022-12-18T12:36:47;1.10;99.90
19152;DHT22;9708;53.114;9.388;2022-12-18T12:39:21;0.90;99.90
19152;DHT22;9708;53.114;9.388;2022-12-18T12:41:49;0.90;99.90
19152;DHT22;9708;53.114;9.388;2022-12-18T12:44:37;0.90;99.90
19152;DHT22;9708;53.114;9.388;2022-12-18T12:47:11;0.70;99.90
19152;DHT22;9708;53.114;9.388;2022-12-18T12:49:40;0.80;99.90
19152;DHT22;9708;53.114;9.388;2022-12-18T12:52:16;0.80;99.90
19152;DHT22;9708;53.114;9.388;2022-12-18T12:54:45;0.60;99.90
19152;DHT22;9708;53.114;9.388;2022-12-18T12:57:15;0.60;99.90
19152;DHT22;9708;53.114;9.388;2022-12-18T12:59:49;0.70;99.90
19152;DHT22;9708;53.114;9.388;2022-12-18T13:02:21;0.70;99.90
19152;DHT22;9708;53.114;9.388;2022-12-18T13:04:56;0.60;99.90
19152;DHT22;9708;53.114;9.388;2022-12-18T13:07:28;0.50;99.90
19152;DHT22;9708;53.114;9.388;2022-12-18T13:12:56;0.40;99.90
19152;DHT22;9708;53.114;9.388;2022-12-18T13:15:24;0.40;99.90
19152;DHT22;9708;53.114;9.388;2022-12-18T13:20:50;0.20;99.90
19152;DHT22;9708;53.114;9.388;2022-12-18T13:23:36;0.30;99.90
19152;DHT22;9708;53.114;9.388;2022-12-18T13:26:29;0.20;99.90
19152;DHT22;9708;53.114;9.388;2022-12-18T13:28:57;0.10;99.90
19152;DHT22;9708;53.114;9.388;2022-12-18T13:31:58;0.10;99.90
19152;DHT22;9708;53.114;9.388;2022-12-18T13:34:26;0.10;99.90
19152;DHT22;9708;53.114;9.388;2022-12-18T13:36:56;0.30;99.90
19152;DHT22;9708;53.114;9.388;2022-12-18T13:39:31;0.40;99.90
19152;DHT22;9708;53.114;9.388;2022-12-18T13:45:59;0.30;99.90
19152;DHT22;9708;53.114;9.388;2022-12-18T13:48:27;0.30;99.90
19152;DHT22;9708;53.114;9.388;2022-12-18T13:50:59;0.20;99.90
19152;DHT22;9708;53.114;9.388;2022-12-18T13:53:31;0.20;99.90
19152;DHT22;9708;53.114;9.388;2022-12-18T13:56:02;0.20;99.90
19152;DHT22;9708;53.114;9.388;2022-12-18T13:58:29;0.20;99.90
19152;DHT22;9708;53.114;9.388;2022-12-18T14:00:56;0.30;99.90
19152;DHT22;9708;53.114;9.388;2022-12-18T14:03:26;0.30;99.90
19152;DHT22;9708;53.114;9.388;2022-12-18T14:05:55;0.30;99.90
19152;DHT22;9708;53.114;9.388;2022-12-18T14:08:23;0.30;99.90
19152;DHT22;9708;53.114;9.388;2022-12-18T14:10:51;0.10;99.90
19152;DHT22;9708;53.114;9.388;2022-12-18T14:13:24;0.10;99.90
19152;DHT22;9708;53.114;9.388;2022-12-18T14:15:53;0.10;99.90
19152;DHT22;9708;53.114;9.388;2022-12-18T14:18:22;0.20;99.90
19152;DHT22;9708;53.114;9.388;2022-12-18T14:20:50;0.00;99.90
19152;DHT22;9708;53.114;9.388;2022-12-18T14:23:29;0.10;99.90
19152;DHT22;9708;53.114;9.388;2022-12-18T14:25:56;0.10;99.90
19152;DHT22;9708;53.114;9.388;2022-12-18T14:28:25;0.00;99.90
19152;DHT22;9708;53.114;9.388;2022-12-18T14:30:52;0.00;99.90
19152;DHT22;9708;53.114;9.388;2022-12-18T14:33:21;0.00;99.90
19152;DHT22;9708;53.114;9.388;2022-12-18T14:35:57;-0.10;99.90
19152;DHT22;9708;53.114;9.388;2022-12-18T14:38:28;-0.30;99.90
19152;DHT22;9708;53.114;9.388;2022-12-18T14:40:57;-0.30;99.90
19152;DHT22;9708;53.114;9.388;2022-12-18T14:43:26;-0.30;99.90
19152;DHT22;9708;53.114;9.388;2022-12-18T14:45:53;-0.40;99.90
19152;DHT22;9708;53.114;9.388;2022-12-18T14:48:22;-0.40;99.90
19152;DHT22;9708;53.114;9.388;2022-12-18T14:50:58;-0.40;99.90
19152;DHT22;9708;53.114;9.388;2022-12-18T14:53:34;-0.40;99.90
19152;DHT22;9708;53.114;9.388;2022-12-18T14:56:02;-0.50;99.90
19152;DHT22;9708;53.114;9.388;2022-12-18T14:58:31;-0.30;99.90
19152;DHT22;9708;53.114;9.388;2022-12-18T15:00:57;-0.40;99.90
19152;DHT22;9708;53.114;9.388;2022-12-18T15:03:25;-0.50;99.90
19152;DHT22;9708;53.114;9.388;2022-12-18T15:05:51;-0.50;99.90
19152;DHT22;9708;53.114;9.388;2022-12-18T15:08:30;-0.50;99.90
19152;DHT22;9708;53.114;9.388;2022-12-18T15:10:57;-0.70;99.90
19152;DHT22;9708;53.114;9.388;2022-12-18T15:13:24;-0.70;99.90
19152;DHT22;9708;53.114;9.388;2022-12-18T15:15:53;-0.80;99.90
19152;DHT22;9708;53.114;9.388;2022-12-18T15:18:26;-0.80;99.90
19152;DHT22;9708;53.114;9.388;2022-12-18T15:20:57;-0.90;99.90
19152;DHT22;9708;53.114;9.388;2022-12-18T15:23:27;-1.00;99.90
19152;DHT22;9708;53.114;9.388;2022-12-18T15:25:56;-1.00;99.90
19152;DHT22;9708;53.114;9.388;2022-12-18T15:28:25;-1.10;99.90
19152;DHT22;9708;53.114;9.388;2022-12-18T15:31:06;-1.20;99.90
19152;DHT22;9708;53.114;9.388;2022-12-18T15:34:00;-1.20;99.90
19152;DHT22;9708;53.114;9.388;2022-12-18T15:36:29;-1.30;99.90
19152;DHT22;9708;53.114;9.388;2022-12-18T15:38:56;-1.30;99.90
19152;DHT22;9708;53.114;9.388;2022-12-18T15:41:23;-1.30;99.90
19152;DHT22;9708;53.114;9.388;2022-12-18T15:43:52;-1.40;99.90
19152;DHT22;9708;53.114;9.388;2022-12-18T15:46:21;-1.30;99.90
19152;DHT22;9708;53.114;9.388;2022-12-18T15:48:50;-1.40;99.90
19152;DHT22;9708;53.114;9.388;2022-12-18T15:51:19;-1.40;99.90
19152;DHT22;9708;53.114;9.388;2022-12-18T15:53:47;-1.30;99.90
19152;DHT22;9708;53.114;9.388;2022-12-18T15:56:15;-1.30;99.90
19152;DHT22;9708;53.114;9.388;2022-12-18T15:59:00;-1.30;99.90
19152;DHT22;9708;53.114;9.388;2022-12-18T16:01:30;-1.40;99.90
19152;DHT22;9708;53.114;9.388;2022-12-18T16:03:57;-1.40;99.90
19152;DHT22;9708;53.114;9.388;2022-12-18T16:06:23;-1.50;99.90
19152;DHT22;9708;53.114;9.388;2022-12-18T16:08:50;-1.50;99.90
19152;DHT22;9708;53.114;9.388;2022-12-18T16:11:21;-1.50;99.90
19152;DHT22;9708;53.114;9.388;2022-12-18T16:14:04;-1.40;99.90
19152;DHT22;9708;53.114;9.388;2022-12-18T16:16:32;-1.50;99.90
19152;DHT22;9708;53.114;9.388;2022-12-18T16:18:59;-1.50;99.90
19152;DHT22;9708;53.114;9.388;2022-12-18T16:21:26;-1.50;99.90